createdAt,value
2018-04-01T00:01:24.173Z,2.50
2018-04-01T00:03:52.079Z,2.50
2018-04-01T00:06:19.960Z,2.50
2018-04-01T00:08:47.919Z,2.60
2018-04-01T00:11:15.821Z,2.60
2018-04-01T00:13:43.713Z,2.60
2018-04-01T00:16:11.610Z,2.50
2018-04-01T00:18:39.533Z,2.50
2018-04-01T00:21:07.415Z,2.50
2018-04-01T00:23:36.324Z,2.40
2018-04-01T00:26:04.978Z,2.40
2018-04-01T00:28:32.906Z,2.40
2018-04-01T00:31:00.821Z,2.30
2018-04-01T00:33:28.707Z,2.30
2018-04-01T00:35:57.411Z,2.30
2018-04-01T00:38:25.287Z,2.30
2018-04-01T00:40:53.227Z,2.40
2018-04-01T00:43:21.892Z,2.40
2018-04-01T00:45:49.775Z,2.40
2018-04-01T00:48:18.445Z,2.30
2018-04-01T00:50:46.333Z,2.30
2018-04-01T00:53:15.014Z,2.30
2018-04-01T00:55:43.706Z,2.30
2018-04-01T00:58:11.612Z,2.30
2018-04-01T01:00:40.572Z,2.20
2018-04-01T01:03:08.470Z,2.20
2018-04-01T01:05:36.372Z,2.20
2018-04-01T01:08:04.280Z,2.30
2018-04-01T01:10:32.200Z,2.30
2018-04-01T01:13:00.059Z,2.20
2018-04-01T01:15:27.931Z,2.20
2018-04-01T01:17:55.895Z,2.20
2018-04-01T01:20:23.817Z,2.30
2018-04-01T01:22:51.699Z,2.20
2018-04-01T01:25:19.582Z,2.20
2018-04-01T01:27:47.488Z,2.30
2018-04-01T01:30:16.194Z,2.40
2018-04-01T01:32:44.882Z,2.40
2018-04-01T01:35:12.778Z,2.40
2018-04-01T01:37:40.735Z,2.30
2018-04-01T01:40:11.890Z,2.40
2018-04-01T01:42:39.789Z,2.30
2018-04-01T01:45:08.438Z,2.20
2018-04-01T01:47:36.329Z,2.10
2018-04-01T01:50:04.238Z,2.10
2018-04-01T01:52:32.191Z,2.20
2018-04-01T01:55:00.092Z,2.30
2018-04-01T01:57:27.963Z,2.30
2018-04-01T01:59:55.916Z,2.30
2018-04-01T02:02:23.800Z,2.30
2018-04-01T02:04:51.721Z,2.10
2018-04-01T02:07:20.385Z,2.10
2018-04-01T02:09:48.294Z,2.10
2018-04-01T02:12:16.277Z,2.10
2018-04-01T02:14:44.161Z,2.10
2018-04-01T02:17:12.057Z,2.00
2018-04-01T02:19:39.996Z,2.00
2018-04-01T02:22:07.942Z,2.00
2018-04-01T02:24:35.826Z,2.10
2018-04-01T02:27:03.764Z,2.10
2018-04-01T02:29:31.749Z,2.00
2018-04-01T02:31:59.649Z,1.90
2018-04-01T02:34:27.563Z,1.90
2018-04-01T02:36:55.842Z,1.90
2018-04-01T02:39:23.710Z,1.90
2018-04-01T02:41:51.633Z,2.00
2018-04-01T02:44:20.357Z,2.10
2018-04-01T02:46:48.233Z,2.10
2018-04-01T02:49:16.130Z,2.00
2018-04-01T02:51:44.031Z,1.90
2018-04-01T02:54:12.692Z,1.80
2018-04-01T02:56:40.648Z,1.80
2018-04-01T02:59:08.552Z,1.80
2018-04-01T03:01:37.192Z,1.80
2018-04-01T03:04:05.124Z,1.80
2018-04-01T03:06:33.030Z,1.90
2018-04-01T03:09:00.981Z,1.80
2018-04-01T03:11:28.863Z,1.80
2018-04-01T03:13:56.766Z,1.80
2018-04-01T03:16:25.446Z,1.60
2018-04-01T03:18:54.112Z,1.70
2018-04-01T03:21:22.057Z,1.60
2018-04-01T03:23:49.998Z,1.60
2018-04-01T03:26:17.920Z,1.70
2018-04-01T03:28:45.814Z,1.60
2018-04-01T03:31:13.714Z,1.70
2018-04-01T03:33:41.660Z,1.70
2018-04-01T03:36:09.542Z,1.70
2018-04-01T03:38:37.482Z,1.70
2018-04-01T03:41:05.420Z,1.70
2018-04-01T03:43:33.310Z,1.70
2018-04-01T03:46:01.973Z,1.60
2018-04-01T03:48:29.859Z,1.60
2018-04-01T03:50:57.811Z,1.60
2018-04-01T03:53:25.673Z,1.70
2018-04-01T03:55:53.563Z,1.70
2018-04-01T03:58:22.242Z,1.80
2018-04-01T04:00:50.912Z,1.80
2018-04-01T04:03:18.807Z,1.70
2018-04-01T04:05:46.731Z,1.70
2018-04-01T04:08:14.675Z,1.70
2018-04-01T04:10:42.569Z,1.70
2018-04-01T04:13:10.872Z,1.70
2018-04-01T04:15:39.488Z,1.60
2018-04-01T04:18:07.347Z,1.60
2018-04-01T04:20:35.233Z,1.60
2018-04-01T04:23:03.152Z,1.70
2018-04-01T04:25:31.794Z,1.70
2018-04-01T04:27:59.680Z,1.70
2018-04-01T04:30:27.630Z,1.70
2018-04-01T04:32:55.524Z,1.70
2018-04-01T04:35:24.151Z,1.70
2018-04-01T04:37:52.034Z,1.70
2018-04-01T04:40:19.960Z,1.80
2018-04-01T04:42:48.190Z,1.80
2018-04-01T04:45:16.079Z,1.80
2018-04-01T04:47:44.737Z,1.80
2018-04-01T04:50:12.644Z,1.80
2018-04-01T04:52:41.339Z,1.70
2018-04-01T04:55:09.275Z,1.70
2018-04-01T04:57:37.163Z,1.70
2018-04-01T05:00:05.881Z,1.70
2018-04-01T05:02:33.767Z,1.70
2018-04-01T05:05:01.686Z,1.80
2018-04-01T05:07:29.617Z,1.80
2018-04-01T05:09:57.547Z,1.90
2018-04-01T05:12:25.504Z,1.80
2018-04-01T05:14:53.389Z,1.70
2018-04-01T05:17:21.248Z,1.80
2018-04-01T05:19:49.938Z,1.70
2018-04-01T05:22:18.210Z,1.70
2018-04-01T05:24:46.096Z,1.70
2018-04-01T05:27:13.971Z,1.70
2018-04-01T05:29:41.849Z,1.70
2018-04-01T05:32:09.806Z,1.70
2018-04-01T05:34:37.684Z,1.70
2018-04-01T05:37:05.544Z,1.80
2018-04-01T05:39:33.450Z,1.80
2018-04-01T05:42:01.347Z,1.80
2018-04-01T05:44:29.314Z,1.80
2018-04-01T05:46:57.174Z,1.80
2018-04-01T05:49:25.090Z,1.90
2018-04-01T05:51:53.771Z,1.90
2018-04-01T05:54:21.649Z,1.90
2018-04-01T05:56:50.276Z,1.80
2018-04-01T05:59:18.608Z,1.80
2018-04-01T06:01:47.274Z,2.00
2018-04-01T06:04:15.181Z,2.00
2018-04-01T06:06:43.082Z,2.10
2018-04-01T06:09:10.975Z,2.10
2018-04-01T06:11:38.863Z,2.20
2018-04-01T06:14:07.561Z,2.40
2018-04-01T06:16:35.452Z,2.40
2018-04-01T06:19:03.334Z,2.40
2018-04-01T06:21:31.588Z,2.50
2018-04-01T06:23:59.463Z,2.50
2018-04-01T06:26:27.347Z,2.60
2018-04-01T06:28:55.284Z,2.60
2018-04-01T06:31:23.168Z,2.60
2018-04-01T06:33:51.063Z,2.70
2018-04-01T06:36:19.006Z,2.80
2018-04-01T06:38:46.863Z,2.70
2018-04-01T06:41:14.726Z,2.60
2018-04-01T06:43:42.661Z,2.60
2018-04-01T06:46:10.588Z,2.70
2018-04-01T06:48:38.503Z,2.70
2018-04-01T06:51:06.410Z,2.70
2018-04-01T06:53:34.275Z,2.60
2018-04-01T06:56:02.143Z,2.60
2018-04-01T06:58:30.070Z,2.80
2018-04-01T07:00:57.958Z,2.80
2018-04-01T07:03:25.885Z,2.80
2018-04-01T07:05:53.793Z,2.90
2018-04-01T07:08:21.704Z,2.80
2018-04-01T07:10:50.384Z,3.00
2018-04-01T07:13:19.061Z,3.00
2018-04-01T07:15:46.971Z,2.90
2018-04-01T07:18:14.887Z,2.90
2018-04-01T07:20:42.807Z,2.90
2018-04-01T07:23:10.659Z,2.90
2018-04-01T07:25:38.586Z,2.90
2018-04-01T07:28:06.443Z,2.90
2018-04-01T07:30:34.346Z,3.00
2018-04-01T07:33:02.978Z,3.00
2018-04-01T07:35:30.845Z,3.00
2018-04-01T07:37:58.773Z,3.10
2018-04-01T07:40:27.409Z,2.90
2018-04-01T07:42:55.606Z,2.90
2018-04-01T07:45:23.495Z,2.90
2018-04-01T07:47:51.409Z,2.90
2018-04-01T07:50:19.328Z,2.90
2018-04-01T07:52:49.857Z,2.90
2018-04-01T07:55:19.222Z,2.90
2018-04-01T07:57:49.155Z,2.90
2018-04-01T08:00:18.200Z,2.80
2018-04-01T08:02:48.016Z,2.80
2018-04-01T08:05:18.265Z,2.90
2018-04-01T08:07:47.034Z,2.80
2018-04-01T08:10:16.226Z,2.90
2018-04-01T08:12:45.510Z,2.90
2018-04-01T08:15:14.204Z,2.90
2018-04-01T08:17:44.371Z,3.00
2018-04-01T08:20:13.042Z,2.90
2018-04-01T08:22:40.997Z,2.90
2018-04-01T08:25:10.929Z,3.00
2018-04-01T08:27:39.787Z,3.10
2018-04-01T08:30:07.744Z,3.30
2018-04-01T08:32:35.641Z,3.30
2018-04-01T08:35:03.505Z,3.20
2018-04-01T08:37:31.413Z,3.00
2018-04-01T08:39:59.546Z,3.10
2018-04-01T08:42:27.453Z,3.00
2018-04-01T08:44:55.424Z,3.00
2018-04-01T08:47:23.333Z,3.00
2018-04-01T08:49:51.258Z,3.30
2018-04-01T08:52:19.187Z,3.40
2018-04-01T08:54:47.076Z,3.40
2018-04-01T08:57:17.753Z,3.40
2018-04-01T08:59:45.720Z,3.40
2018-04-01T09:02:13.627Z,3.60
2018-04-01T09:04:41.571Z,3.80
2018-04-01T09:07:10.485Z,3.90
2018-04-01T09:09:39.145Z,4.20
2018-04-01T09:12:07.076Z,4.10
2018-04-01T09:14:34.968Z,4.30
2018-04-01T09:17:04.941Z,4.20
2018-04-01T09:19:32.844Z,4.20
2018-04-01T09:22:00.781Z,4.10
2018-04-01T09:24:30.616Z,4.00
2018-04-01T09:26:59.880Z,4.00
2018-04-01T09:29:28.023Z,4.00
2018-04-01T09:31:57.763Z,4.10
2018-04-01T09:34:25.667Z,4.10
2018-04-01T09:36:54.860Z,4.10
2018-04-01T09:39:22.755Z,4.10
2018-04-01T09:41:50.750Z,4.10
2018-04-01T09:44:19.407Z,4.50
2018-04-01T09:46:48.342Z,4.40
2018-04-01T09:49:16.858Z,4.50
2018-04-01T09:51:45.842Z,4.60
2018-04-01T09:54:17.772Z,4.60
2018-04-01T09:56:45.653Z,4.90
2018-04-01T09:59:14.601Z,5.20
2018-04-01T10:01:44.924Z,5.50
2018-04-01T10:04:13.340Z,5.70
2018-04-01T10:06:43.065Z,5.80
2018-04-01T10:09:11.428Z,5.70
2018-04-01T10:11:39.792Z,5.70
2018-04-01T10:14:10.018Z,5.80
2018-04-01T10:16:38.449Z,5.80
2018-04-01T10:19:06.875Z,5.90
2018-04-01T10:21:37.261Z,5.90
2018-04-01T10:24:07.005Z,5.90
2018-04-01T10:26:35.514Z,5.90
2018-04-01T10:29:03.955Z,6.00
2018-04-01T10:31:33.147Z,5.70
2018-04-01T10:34:02.349Z,6.00
2018-04-01T10:36:31.634Z,6.00
2018-04-01T10:39:00.764Z,5.90
2018-04-01T10:41:29.294Z,5.90
2018-04-01T10:43:57.716Z,5.90
2018-04-01T10:46:26.286Z,6.00
2018-04-01T10:48:55.449Z,6.30
2018-04-01T10:51:23.871Z,6.30
2018-04-01T10:53:56.574Z,6.40
2018-04-01T10:56:26.707Z,6.30
2018-04-01T10:58:54.994Z,6.20
2018-04-01T11:01:23.654Z,6.40
2018-04-01T11:03:51.545Z,6.40
2018-04-01T11:06:19.570Z,6.40
2018-04-01T11:08:47.584Z,6.40
2018-04-01T11:11:15.499Z,6.40
2018-04-01T11:13:43.446Z,6.30
2018-04-01T11:16:12.177Z,6.20
2018-04-01T11:18:40.392Z,6.20
2018-04-01T11:21:09.548Z,6.30
2018-04-01T11:23:37.415Z,6.40
2018-04-01T11:26:05.439Z,6.30
2018-04-01T11:28:35.244Z,6.10
2018-04-01T11:31:03.155Z,6.10
2018-04-01T11:33:31.016Z,6.00
2018-04-01T11:36:00.109Z,6.10
2018-04-01T11:38:32.824Z,5.80
2018-04-01T11:41:01.108Z,5.90
2018-04-01T11:43:29.106Z,6.30
2018-04-01T11:45:57.880Z,6.50
2018-04-01T11:48:25.803Z,6.40
2018-04-01T11:50:53.841Z,6.60
2018-04-01T11:53:21.738Z,7.00
2018-04-01T11:55:51.235Z,7.20
2018-04-01T11:58:19.105Z,7.20
2018-04-01T12:00:48.097Z,7.20
2018-04-01T12:03:16.007Z,7.20
2018-04-01T12:05:43.905Z,7.20
2018-04-01T12:08:11.847Z,7.30
2018-04-01T12:10:40.527Z,7.30
2018-04-01T12:13:09.268Z,7.20
2018-04-01T12:15:37.283Z,7.20
2018-04-01T12:18:05.260Z,7.10
2018-04-01T12:20:34.427Z,7.30
2018-04-01T12:23:04.024Z,7.30
2018-04-01T12:25:33.576Z,7.30
2018-04-01T12:28:02.349Z,7.10
2018-04-01T12:30:30.265Z,7.00
2018-04-01T12:32:58.505Z,6.70
2018-04-01T12:35:27.228Z,6.80
2018-04-01T12:37:55.210Z,6.80
2018-04-01T12:40:23.244Z,6.90
2018-04-01T12:42:52.159Z,6.90
2018-04-01T12:45:20.250Z,7.00
2018-04-01T12:47:48.356Z,7.10
2018-04-01T12:50:17.155Z,7.20
2018-04-01T12:52:46.257Z,7.20
2018-04-01T12:55:14.180Z,7.40
2018-04-01T12:57:42.073Z,7.30
2018-04-01T13:00:10.752Z,7.50
2018-04-01T13:02:38.688Z,7.50
2018-04-01T13:05:06.689Z,7.60
2018-04-01T13:07:35.338Z,7.60
2018-04-01T13:10:03.549Z,7.60
2018-04-01T13:12:31.475Z,7.50
2018-04-01T13:14:59.420Z,7.40
2018-04-01T13:17:27.430Z,7.40
2018-04-01T13:19:55.345Z,7.40
2018-04-01T13:22:23.235Z,7.50
2018-04-01T13:24:51.096Z,7.50
2018-04-01T13:27:21.275Z,7.50
2018-04-01T13:29:49.994Z,7.60
2018-04-01T13:32:17.886Z,7.60
2018-04-01T13:34:45.771Z,7.60
2018-04-01T13:37:13.688Z,7.60
2018-04-01T13:39:41.560Z,7.40
2018-04-01T13:42:10.241Z,7.30
2018-04-01T13:44:38.106Z,7.20
2018-04-01T13:47:06.401Z,7.20
2018-04-01T13:49:34.344Z,7.40
2018-04-01T13:52:02.199Z,7.40
2018-04-01T13:54:30.116Z,7.60
2018-04-01T13:56:58.055Z,7.60
2018-04-01T13:59:25.981Z,7.40
2018-04-01T14:01:56.428Z,7.30
2018-04-01T14:04:24.292Z,7.20
2018-04-01T14:06:52.298Z,7.30
2018-04-01T14:09:20.246Z,7.40
2018-04-01T14:11:48.145Z,7.50
2018-04-01T14:14:16.013Z,7.70
2018-04-01T14:16:45.019Z,7.90
2018-04-01T14:19:13.676Z,8.00
2018-04-01T14:21:41.616Z,8.00
2018-04-01T14:24:10.662Z,8.00
2018-04-01T14:26:39.093Z,8.10
2018-04-01T14:29:07.487Z,8.30
2018-04-01T14:31:37.592Z,8.40
2018-04-01T14:34:05.623Z,8.50
2018-04-01T14:36:34.398Z,8.10
2018-04-01T14:39:02.326Z,8.10
2018-04-01T14:41:30.261Z,7.80
2018-04-01T14:43:59.145Z,7.70
2018-04-01T14:46:27.923Z,7.70
2018-04-01T14:48:56.666Z,7.70
2018-04-01T14:51:26.750Z,7.70
2018-04-01T14:53:55.661Z,7.80
2018-04-01T14:56:29.692Z,8.00
2018-04-01T14:58:57.653Z,7.90
2018-04-01T15:01:25.584Z,7.70
2018-04-01T15:03:53.483Z,7.60
2018-04-01T15:06:21.442Z,7.40
2018-04-01T15:08:49.388Z,7.50
2018-04-01T15:11:17.320Z,7.80
2018-04-01T15:13:46.571Z,8.20
2018-04-01T15:16:14.576Z,8.20
2018-04-01T15:18:42.488Z,8.20
2018-04-01T15:21:10.440Z,8.00
2018-04-01T15:23:38.539Z,7.80
2018-04-01T15:26:06.549Z,7.60
2018-04-01T15:28:34.451Z,7.70
2018-04-01T15:31:02.332Z,7.80
2018-04-01T15:33:30.394Z,7.80
2018-04-01T15:35:58.493Z,7.70
2018-04-01T15:38:27.512Z,7.80
2018-04-01T15:40:55.580Z,7.60
2018-04-01T15:43:23.438Z,7.60
2018-04-01T15:45:51.379Z,7.70
2018-04-01T15:48:19.306Z,7.70
2018-04-01T15:50:47.944Z,7.50
2018-04-01T15:53:15.855Z,7.50
2018-04-01T15:55:44.569Z,7.40
2018-04-01T15:58:12.475Z,7.30
2018-04-01T16:00:40.359Z,7.30
2018-04-01T16:03:08.241Z,7.30
2018-04-01T16:06:12.925Z,7.30
2018-04-01T16:09:14.810Z,7.30
2018-04-01T16:11:49.782Z,7.50
2018-04-01T16:14:19.570Z,7.50
2018-04-01T16:16:51.488Z,7.20
2018-04-01T16:19:19.543Z,7.10
2018-04-01T16:21:47.476Z,7.10
2018-04-01T16:24:16.255Z,7.20
2018-04-01T16:26:45.178Z,7.20
2018-04-01T16:29:13.112Z,7.20
2018-04-01T16:31:42.689Z,7.10
2018-04-01T16:34:12.073Z,7.10
2018-04-01T16:36:40.101Z,7.00
2018-04-01T16:39:08.073Z,7.00
2018-04-01T16:41:35.996Z,6.80
2018-04-01T16:44:03.963Z,6.90
2018-04-01T16:46:31.955Z,7.00
2018-04-01T16:49:00.676Z,7.00
2018-04-01T16:51:28.675Z,7.00
2018-04-01T16:53:56.549Z,7.00
2018-04-01T16:56:24.608Z,7.10
2018-04-01T16:58:52.641Z,7.20
2018-04-01T17:01:21.347Z,7.40
2018-04-01T17:03:49.279Z,7.40
2018-04-01T17:06:18.014Z,7.00
2018-04-01T17:08:46.083Z,7.00
2018-04-01T17:11:13.987Z,6.80
2018-04-01T17:13:43.034Z,6.50
2018-04-01T17:16:13.566Z,6.50
2018-04-01T17:18:43.235Z,6.40
2018-04-01T17:21:13.289Z,6.10
2018-04-01T17:23:43.150Z,6.10
2018-04-01T17:26:11.270Z,5.90
2018-04-01T17:28:39.159Z,5.70
2018-04-01T17:31:07.115Z,5.70
2018-04-01T17:33:35.052Z,5.60
2018-04-01T17:36:04.294Z,5.60
2018-04-01T17:38:32.300Z,5.60
2018-04-01T17:41:00.962Z,5.70
2018-04-01T17:43:28.874Z,5.60
2018-04-01T17:45:56.778Z,5.70
2018-04-01T17:48:24.679Z,5.70
2018-04-01T17:50:53.360Z,5.70
2018-04-01T17:53:22.007Z,5.70
2018-04-01T17:55:49.966Z,5.60
2018-04-01T17:58:17.895Z,5.60
2018-04-01T18:00:45.783Z,5.60
2018-04-01T18:03:13.683Z,5.60
2018-04-01T18:05:41.679Z,5.60
2018-04-01T18:08:17.522Z,5.70
2018-04-01T18:10:45.486Z,5.60
2018-04-01T18:13:13.338Z,5.70
2018-04-01T18:15:41.304Z,5.70
2018-04-01T18:18:11.232Z,5.80
2018-04-01T18:20:39.284Z,5.80
2018-04-01T18:23:07.229Z,5.70
2018-04-01T18:25:35.290Z,5.70
2018-04-01T18:28:03.303Z,5.60
2018-04-01T18:30:31.340Z,5.60
2018-04-01T18:32:59.222Z,5.60
2018-04-01T18:35:27.208Z,5.60
2018-04-01T18:37:55.298Z,5.60
2018-04-01T18:40:23.925Z,5.70
2018-04-01T18:42:51.848Z,5.70
2018-04-01T18:45:20.527Z,5.70
2018-04-01T18:47:48.907Z,5.70
2018-04-01T18:50:16.748Z,5.70
2018-04-01T18:52:45.407Z,5.70
2018-04-01T18:55:14.378Z,5.70
2018-04-01T18:57:43.343Z,5.70
2018-04-01T19:00:12.007Z,5.70
2018-04-01T19:02:39.922Z,5.70
2018-04-01T19:05:08.887Z,5.70
2018-04-01T19:07:44.189Z,5.80
2018-04-01T19:10:12.121Z,5.70
2018-04-01T19:12:40.044Z,5.80
2018-04-01T19:15:08.048Z,5.80
2018-04-01T19:17:37.655Z,5.80
2018-04-01T19:20:06.043Z,5.70
2018-04-01T19:22:34.427Z,5.60
2018-04-01T19:25:03.962Z,5.50
2018-04-01T19:27:32.417Z,5.40
2018-04-01T19:30:00.876Z,5.40
2018-04-01T19:32:29.328Z,5.30
2018-04-01T19:34:57.736Z,5.20
2018-04-01T19:37:26.182Z,5.00
2018-04-01T19:39:55.381Z,4.80
2018-04-01T19:42:24.537Z,4.70
2018-04-01T19:44:53.098Z,4.70
2018-04-01T19:47:22.097Z,4.60
2018-04-01T19:49:50.488Z,4.50
2018-04-01T19:52:18.904Z,4.40
2018-04-01T19:54:47.526Z,4.30
2018-04-01T19:57:15.965Z,4.10
2018-04-01T19:59:44.446Z,4.00
2018-04-01T20:02:12.873Z,3.90
2018-04-01T20:04:41.247Z,3.90
2018-04-01T20:07:09.674Z,3.90
2018-04-01T20:09:38.029Z,3.90
2018-04-01T20:12:06.529Z,3.90
2018-04-01T20:14:34.917Z,3.90
2018-04-01T20:17:03.362Z,3.80
2018-04-01T20:19:31.809Z,3.80
2018-04-01T20:22:00.267Z,3.70
2018-04-01T20:24:30.433Z,3.80
2018-04-01T20:26:58.786Z,3.80
2018-04-01T20:29:27.226Z,3.70
2018-04-01T20:31:55.579Z,3.70
2018-04-01T20:34:24.002Z,3.70
2018-04-01T20:36:53.175Z,3.90
2018-04-01T20:39:23.644Z,3.90
2018-04-01T20:41:53.140Z,4.00
2018-04-01T20:44:21.534Z,4.00
2018-04-01T20:46:49.933Z,4.00
2018-04-01T20:49:18.303Z,4.10
2018-04-01T20:51:47.612Z,4.10
2018-04-01T20:54:16.028Z,4.10
2018-04-01T20:56:44.476Z,4.20
2018-04-01T20:59:12.828Z,4.20
2018-04-01T21:01:41.218Z,4.30
2018-04-01T21:04:10.205Z,4.30
2018-04-01T21:06:38.641Z,4.40
2018-04-01T21:09:07.800Z,4.30
2018-04-01T21:11:36.245Z,4.30
2018-04-01T21:14:04.612Z,4.30
2018-04-01T21:16:33.047Z,4.30
2018-04-01T21:19:01.416Z,4.40
2018-04-01T21:21:29.878Z,4.40
2018-04-01T21:23:58.823Z,4.40
2018-04-01T21:26:27.990Z,4.40
2018-04-01T21:28:57.056Z,4.40
2018-04-01T21:31:26.299Z,4.30
2018-04-01T21:33:54.692Z,4.30
2018-04-01T21:36:24.256Z,4.30
2018-04-01T21:38:52.672Z,4.30
2018-04-01T21:41:22.826Z,4.30
2018-04-01T21:43:51.209Z,4.30
2018-04-01T21:46:19.567Z,4.20
2018-04-01T21:48:48.006Z,4.20
2018-04-01T21:51:16.392Z,4.20
2018-04-01T21:53:44.858Z,4.20
2018-04-01T21:56:13.382Z,4.10
2018-04-01T21:58:42.218Z,4.10
2018-04-01T22:01:10.799Z,4.10
2018-04-01T22:03:39.713Z,4.20
2018-04-01T22:06:11.955Z,4.10
2018-04-01T22:08:40.983Z,4.00
2018-04-01T22:11:09.497Z,4.00
2018-04-01T22:13:38.560Z,3.90
2018-04-01T22:16:08.824Z,3.70
2018-04-01T22:18:37.199Z,3.70
2018-04-01T22:21:05.940Z,3.60
2018-04-01T22:23:35.089Z,3.60
2018-04-01T22:26:03.515Z,3.60
2018-04-01T22:28:32.664Z,3.70
2018-04-01T22:31:01.003Z,3.60
2018-04-01T22:33:30.165Z,3.60
2018-04-01T22:35:58.542Z,3.60
2018-04-01T22:38:26.897Z,3.70
2018-04-01T22:40:55.264Z,3.70
2018-04-01T22:43:23.633Z,3.60
2018-04-01T22:45:52.497Z,3.70
2018-04-01T22:48:21.685Z,3.70
2018-04-01T22:50:50.844Z,3.80
2018-04-01T22:53:19.235Z,3.80
2018-04-01T22:55:47.636Z,3.90
2018-04-01T22:58:17.818Z,3.80
2018-04-01T23:00:46.219Z,3.80
2018-04-01T23:03:14.595Z,3.80
2018-04-01T23:05:43.003Z,3.80
2018-04-01T23:08:11.375Z,3.90
2018-04-01T23:10:40.560Z,3.80
2018-04-01T23:13:09.698Z,3.80
2018-04-01T23:15:38.915Z,3.80
2018-04-01T23:18:07.290Z,3.80
2018-04-01T23:20:35.644Z,3.80
2018-04-01T23:23:04.089Z,3.80
2018-04-01T23:25:33.232Z,3.80
2018-04-01T23:28:01.609Z,3.80
2018-04-01T23:30:29.976Z,3.70
2018-04-01T23:32:58.378Z,3.60
2018-04-01T23:35:26.776Z,3.60
2018-04-01T23:37:55.247Z,3.60
2018-04-01T23:40:24.039Z,3.60
2018-04-01T23:42:52.395Z,3.60
2018-04-01T23:45:20.885Z,3.60
2018-04-01T23:47:49.361Z,3.60
2018-04-01T23:50:17.792Z,3.50
2018-04-01T23:52:46.236Z,3.30
2018-04-01T23:55:14.699Z,3.20
2018-04-01T23:57:43.161Z,3.10
